createdAt,value
2022-08-03T00:00:22.094Z,22.99
2022-08-03T00:01:26.491Z,22.98
2022-08-03T00:02:30.864Z,22.97
2022-08-03T00:03:35.251Z,22.97
2022-08-03T00:04:39.610Z,22.95
2022-08-03T00:06:04.521Z,22.95
2022-08-03T00:06:48.372Z,22.96
2022-08-03T00:07:52.752Z,22.95
2022-08-03T00:08:57.112Z,22.94
2022-08-03T00:10:01.498Z,22.94
2022-08-03T00:11:05.849Z,22.94
2022-08-03T00:12:10.253Z,22.93
2022-08-03T00:13:14.623Z,22.92
2022-08-03T00:14:18.993Z,22.91
2022-08-03T00:15:23.353Z,22.91
2022-08-03T00:16:27.724Z,22.89
2022-08-03T00:17:52.795Z,22.89
2022-08-03T00:18:36.493Z,22.87
2022-08-03T00:19:40.863Z,22.86
2022-08-03T00:20:45.234Z,22.85
2022-08-03T00:21:49.649Z,22.84
2022-08-03T00:22:54.013Z,22.84
2022-08-03T00:23:58.376Z,22.83
2022-08-03T00:25:02.755Z,22.82
2022-08-03T00:26:07.131Z,22.82
2022-08-03T00:27:11.518Z,22.81
2022-08-03T00:28:15.875Z,22.81
2022-08-03T00:29:20.246Z,22.81
2022-08-03T00:30:26.826Z,22.81
2022-08-03T00:31:52.305Z,22.80
2022-08-03T00:32:33.367Z,22.80
2022-08-03T00:33:58.752Z,22.80
2022-08-03T00:34:57.703Z,22.80
2022-08-03T00:35:50.177Z,22.80
2022-08-03T00:36:50.892Z,22.80
2022-08-03T00:37:55.272Z,22.80
2022-08-03T00:38:59.640Z,22.80
2022-08-03T00:40:04.016Z,22.80
2022-08-03T00:41:08.378Z,22.79
2022-08-03T00:42:12.874Z,22.80
2022-08-03T00:43:17.157Z,22.79
2022-08-03T00:44:21.527Z,22.79
2022-08-03T00:45:25.900Z,22.80
2022-08-03T00:46:30.267Z,22.79
2022-08-03T00:47:34.678Z,22.79
2022-08-03T00:48:39.048Z,22.79
2022-08-03T00:49:43.420Z,22.79
2022-08-03T00:50:47.809Z,22.79
2022-08-03T00:51:52.180Z,22.78
2022-08-03T00:52:56.570Z,22.78
2022-08-03T00:54:00.940Z,22.77
2022-08-03T00:55:05.310Z,22.76
2022-08-03T00:56:09.690Z,22.76
2022-08-03T00:57:14.060Z,22.76
2022-08-03T00:58:18.440Z,22.76
2022-08-03T00:59:22.815Z,22.76
2022-08-03T01:00:27.204Z,22.76
2022-08-03T01:01:32.521Z,22.75
2022-08-03T01:02:35.982Z,22.75
2022-08-03T01:03:40.342Z,22.76
2022-08-03T01:04:44.740Z,22.75
2022-08-03T01:05:49.092Z,22.76
2022-08-03T01:06:53.469Z,22.76
2022-08-03T01:07:57.870Z,22.75
2022-08-03T01:09:02.230Z,22.75
2022-08-03T01:10:06.595Z,22.75
2022-08-03T01:11:10.977Z,22.74
2022-08-03T01:12:15.509Z,22.74
2022-08-03T01:14:01.102Z,22.74
2022-08-03T01:14:24.113Z,22.74
2022-08-03T01:15:28.484Z,22.74
2022-08-03T01:16:36.704Z,22.73
2022-08-03T01:17:37.221Z,22.72
2022-08-03T01:18:41.614Z,22.73
2022-08-03T01:19:45.993Z,22.72
2022-08-03T01:20:50.382Z,22.72
2022-08-03T01:21:54.755Z,22.72
2022-08-03T01:22:59.155Z,22.71
2022-08-03T01:24:03.522Z,22.71
2022-08-03T01:25:07.893Z,22.71
2022-08-03T01:26:12.255Z,22.70
2022-08-03T01:27:16.637Z,22.70
2022-08-03T01:28:21.027Z,22.69
2022-08-03T01:29:25.396Z,22.69
2022-08-03T01:30:29.765Z,22.69
2022-08-03T01:31:34.135Z,22.68
2022-08-03T01:32:53.580Z,22.67
2022-08-03T01:33:42.905Z,22.67
2022-08-03T01:34:47.284Z,22.66
2022-08-03T01:35:51.661Z,22.65
2022-08-03T01:36:56.036Z,22.65
2022-08-03T01:38:00.406Z,22.65
2022-08-03T01:39:04.796Z,22.65
2022-08-03T01:40:09.170Z,22.64
2022-08-03T01:41:13.567Z,22.64
2022-08-03T01:42:18.242Z,22.64
2022-08-03T01:44:28.126Z,22.64
2022-08-03T01:44:30.795Z,22.63
2022-08-03T01:45:34.138Z,22.62
2022-08-03T01:46:35.484Z,22.62
2022-08-03T01:47:39.858Z,22.63
2022-08-03T01:48:44.248Z,22.63
2022-08-03T01:49:49.581Z,22.63
2022-08-03T01:50:53.880Z,22.63
2022-08-03T01:52:04.462Z,22.62
2022-08-03T01:53:02.700Z,22.62
2022-08-03T01:54:07.080Z,22.62
2022-08-03T01:55:11.456Z,22.62
2022-08-03T01:56:15.837Z,22.61
2022-08-03T01:57:20.207Z,22.61
2022-08-03T01:58:24.608Z,22.61
2022-08-03T01:59:28.979Z,22.60
2022-08-03T02:00:33.350Z,22.60
2022-08-03T02:02:28.997Z,22.59
2022-08-03T02:02:42.787Z,22.59
2022-08-03T02:04:00.226Z,22.58
2022-08-03T02:04:50.871Z,22.57
2022-08-03T02:06:17.840Z,22.56
2022-08-03T02:07:02.866Z,22.57
2022-08-03T02:08:04.009Z,22.56
2022-08-03T02:09:08.390Z,22.56
2022-08-03T02:10:12.760Z,22.56
2022-08-03T02:11:17.142Z,22.55
2022-08-03T02:12:21.521Z,22.55
2022-08-03T02:13:25.919Z,22.54
2022-08-03T02:14:30.283Z,22.55
2022-08-03T02:15:34.660Z,22.55
2022-08-03T02:16:39.021Z,22.55
2022-08-03T02:17:43.405Z,22.55
2022-08-03T02:18:47.789Z,22.55
2022-08-03T02:19:52.181Z,22.55
2022-08-03T02:20:56.552Z,22.54
2022-08-03T02:22:01.911Z,22.54
2022-08-03T02:23:05.303Z,22.54
2022-08-03T02:24:09.700Z,22.54
2022-08-03T02:25:14.076Z,22.54
2022-08-03T02:26:18.453Z,22.53
2022-08-03T02:27:22.816Z,22.52
2022-08-03T02:28:27.213Z,22.51
2022-08-03T02:29:39.782Z,22.51
2022-08-03T02:30:35.963Z,22.50
2022-08-03T02:31:40.353Z,22.49
2022-08-03T02:32:44.723Z,22.48
2022-08-03T02:33:49.112Z,22.48
2022-08-03T02:34:53.494Z,22.47
2022-08-03T02:35:57.886Z,22.45
2022-08-03T02:37:02.263Z,22.44
2022-08-03T02:38:06.634Z,22.43
2022-08-03T02:39:11.035Z,22.42
2022-08-03T02:40:15.418Z,22.41
2022-08-03T02:41:19.795Z,22.40
2022-08-03T02:42:24.174Z,22.39
2022-08-03T02:43:28.554Z,22.39
2022-08-03T02:44:32.973Z,22.37
2022-08-03T02:45:37.346Z,22.36
2022-08-03T02:46:41.725Z,22.35
2022-08-03T02:47:53.477Z,22.34
2022-08-03T02:48:50.514Z,22.34
2022-08-03T02:49:54.972Z,22.33
2022-08-03T02:50:59.648Z,22.33
2022-08-03T02:52:03.648Z,22.32
2022-08-03T02:53:08.025Z,22.31
2022-08-03T02:54:12.436Z,22.30
2022-08-03T02:55:16.807Z,22.29
2022-08-03T02:56:21.178Z,22.28
2022-08-03T02:57:25.548Z,22.27
2022-08-03T02:58:29.927Z,22.26
2022-08-03T02:59:34.327Z,22.25
2022-08-03T03:00:38.743Z,22.24
2022-08-03T03:01:43.088Z,22.23
2022-08-03T03:02:47.488Z,22.23
2022-08-03T03:03:51.881Z,22.22
2022-08-03T03:05:52.906Z,22.21
2022-08-03T03:06:01.022Z,22.20
2022-08-03T03:07:05.408Z,22.20
2022-08-03T03:08:18.535Z,22.20
2022-08-03T03:09:14.173Z,22.19
2022-08-03T03:10:18.540Z,22.19
2022-08-03T03:11:22.921Z,22.18
2022-08-03T03:12:27.292Z,22.18
2022-08-03T03:13:31.677Z,22.18
2022-08-03T03:14:36.070Z,22.18
2022-08-03T03:15:40.441Z,22.17
2022-08-03T03:16:44.822Z,22.16
2022-08-03T03:17:49.200Z,22.16
2022-08-03T03:18:53.571Z,22.15
2022-08-03T03:19:57.973Z,22.14
2022-08-03T03:21:02.369Z,22.14
2022-08-03T03:22:06.759Z,22.14
2022-08-03T03:23:11.111Z,22.14
2022-08-03T03:24:15.522Z,22.13
2022-08-03T03:25:19.941Z,22.12
2022-08-03T03:26:24.284Z,22.12
2022-08-03T03:27:28.664Z,22.11
2022-08-03T03:28:33.041Z,22.11
2022-08-03T03:29:39.559Z,22.11
2022-08-03T03:30:41.813Z,22.10
2022-08-03T03:31:46.190Z,22.10
2022-08-03T03:32:52.500Z,22.09
2022-08-03T03:33:54.952Z,22.09
2022-08-03T03:34:59.354Z,22.08
2022-08-03T03:36:03.724Z,22.08
2022-08-03T03:37:08.103Z,22.07
2022-08-03T03:38:12.477Z,22.07
2022-08-03T03:39:16.864Z,22.06
2022-08-03T03:40:21.261Z,22.06
2022-08-03T03:41:25.643Z,22.06
2022-08-03T03:42:30.015Z,22.05
2022-08-03T03:43:34.414Z,22.05
2022-08-03T03:44:38.805Z,22.05
2022-08-03T03:45:43.184Z,22.05
2022-08-03T03:46:47.563Z,22.05
2022-08-03T03:47:51.947Z,22.05
2022-08-03T03:48:56.351Z,22.05
2022-08-03T03:50:00.725Z,22.05
2022-08-03T03:51:05.097Z,22.06
2022-08-03T03:52:09.546Z,22.06
2022-08-03T03:53:13.860Z,22.06
2022-08-03T03:54:18.235Z,22.06
2022-08-03T03:55:22.657Z,22.06
2022-08-03T03:56:27.046Z,22.06
2022-08-03T03:57:31.427Z,22.07
2022-08-03T03:58:35.806Z,22.07
2022-08-03T03:59:40.193Z,22.07
2022-08-03T04:00:44.659Z,22.07
2022-08-03T04:01:48.974Z,22.07
2022-08-03T04:02:53.359Z,22.07
2022-08-03T04:03:57.727Z,22.08
2022-08-03T04:05:02.127Z,22.09
2022-08-03T04:06:06.499Z,22.09
2022-08-03T04:07:10.886Z,22.10
2022-08-03T04:08:15.275Z,22.10
2022-08-03T04:09:19.647Z,22.11
2022-08-03T04:10:24.057Z,22.12
2022-08-03T04:11:30.358Z,22.13
2022-08-03T04:12:32.807Z,22.14
2022-08-03T04:13:37.208Z,22.15
2022-08-03T04:14:41.588Z,22.16
2022-08-03T04:15:46.001Z,22.17
2022-08-03T04:16:50.376Z,22.18
2022-08-03T04:17:54.757Z,22.19
2022-08-03T04:18:59.405Z,22.21
2022-08-03T04:20:03.534Z,22.22
2022-08-03T04:21:07.906Z,22.24
2022-08-03T04:22:12.307Z,22.25
2022-08-03T04:23:16.681Z,22.26
2022-08-03T04:24:21.067Z,22.28
2022-08-03T04:25:25.460Z,22.29
2022-08-03T04:26:29.841Z,22.31
2022-08-03T04:27:34.224Z,22.32
2022-08-03T04:28:38.600Z,22.34
2022-08-03T04:29:46.399Z,22.35
2022-08-03T04:30:47.381Z,22.37
2022-08-03T04:31:51.753Z,22.37
2022-08-03T04:32:56.124Z,22.39
2022-08-03T04:34:00.503Z,22.41
2022-08-03T04:35:04.896Z,22.43
2022-08-03T04:36:09.283Z,22.45
2022-08-03T04:37:13.662Z,22.47
2022-08-03T04:38:18.042Z,22.49
2022-08-03T04:39:22.433Z,22.52
2022-08-03T04:40:29.780Z,22.55
2022-08-03T04:41:31.230Z,22.58
2022-08-03T04:42:35.612Z,22.61
2022-08-03T04:43:39.992Z,22.64
2022-08-03T05:00:02.000Z,21.68
2022-08-03T05:01:00.942Z,21.93
2022-08-03T05:02:05.365Z,22.10
2022-08-03T05:03:19.447Z,22.23
2022-08-03T05:04:14.129Z,22.34
2022-08-03T05:05:18.511Z,22.44
2022-08-03T05:06:25.019Z,22.54
2022-08-03T05:07:35.862Z,22.64
2022-08-03T05:08:31.705Z,22.73
2022-08-03T05:09:50.437Z,22.82
2022-08-03T05:10:40.461Z,22.90
2022-08-03T05:11:44.861Z,22.97
2022-08-03T05:12:49.233Z,23.04
2022-08-03T05:13:53.614Z,23.11
2022-08-03T05:14:57.982Z,23.17
2022-08-03T05:16:02.381Z,23.23
2022-08-03T05:17:06.760Z,23.28
2022-08-03T05:18:14.220Z,23.33
2022-08-03T05:19:15.520Z,23.37
2022-08-03T05:20:19.894Z,23.42
2022-08-03T05:21:24.298Z,23.45
2022-08-03T05:22:28.671Z,23.48
2022-08-03T05:23:33.054Z,23.52
2022-08-03T05:24:37.424Z,23.55
2022-08-03T05:25:49.748Z,23.59
2022-08-03T05:26:46.202Z,23.63
2022-08-03T05:27:50.573Z,23.66
2022-08-03T05:28:54.935Z,23.68
2022-08-03T05:30:31.663Z,23.71
2022-08-03T05:31:03.714Z,23.74
2022-08-03T05:32:08.478Z,23.79
2022-08-03T05:33:12.445Z,23.84
2022-08-03T05:34:16.834Z,23.89
2022-08-03T05:35:57.702Z,23.93
2022-08-03T05:36:25.666Z,23.97
2022-08-03T05:37:30.036Z,24.00
2022-08-03T05:38:35.525Z,24.04
2022-08-03T05:39:38.817Z,24.08
2022-08-03T05:40:56.685Z,24.11
2022-08-03T05:41:47.593Z,24.15
2022-08-03T05:42:51.976Z,24.19
2022-08-03T05:43:56.355Z,24.23
2022-08-03T05:45:00.737Z,24.28
2022-08-03T05:46:13.009Z,24.33
2022-08-03T05:47:09.507Z,24.38
2022-08-03T05:48:13.887Z,24.40
2022-08-03T05:49:18.351Z,24.42
2022-08-03T05:50:22.647Z,24.44
2022-08-03T05:51:27.058Z,24.49
2022-08-03T05:52:31.442Z,24.55
2022-08-03T05:53:35.830Z,24.60
2022-08-03T05:54:55.426Z,24.66
2022-08-03T05:55:44.579Z,24.71
2022-08-03T05:56:48.978Z,24.76
2022-08-03T05:57:55.275Z,24.81
2022-08-03T05:58:57.709Z,24.85
2022-08-03T06:00:02.101Z,24.90
2022-08-03T06:01:06.565Z,24.95
2022-08-03T06:02:10.866Z,25.00
2022-08-03T06:03:15.229Z,25.04
2022-08-03T06:04:19.601Z,25.10
2022-08-03T06:05:23.970Z,25.16
2022-08-03T06:06:32.192Z,25.21
2022-08-03T06:07:32.740Z,25.27
2022-08-03T06:08:37.110Z,25.31
2022-08-03T06:10:34.268Z,25.36
2022-08-03T06:10:45.852Z,25.42
2022-08-03T06:11:50.242Z,25.47
2022-08-03T06:12:54.627Z,25.52
2022-08-03T06:13:58.991Z,25.58
2022-08-03T06:15:03.365Z,25.64
2022-08-03T06:16:07.733Z,25.69
2022-08-03T06:17:12.134Z,25.74
2022-08-03T06:18:16.503Z,25.77
2022-08-03T06:19:20.934Z,25.81
2022-08-03T06:20:27.310Z,25.86
2022-08-03T06:21:29.683Z,25.90
2022-08-03T06:22:34.072Z,25.93
2022-08-03T06:23:53.850Z,25.98
2022-08-03T06:24:53.521Z,26.02
2022-08-03T06:25:47.207Z,26.06
2022-08-03T06:26:51.602Z,26.10
2022-08-03T06:27:55.984Z,26.15
2022-08-03T06:29:00.365Z,26.20
2022-08-03T06:30:04.744Z,26.25
2022-08-03T06:31:09.106Z,26.32
2022-08-03T06:32:13.515Z,26.38
2022-08-03T06:33:17.883Z,26.43
2022-08-03T06:34:34.350Z,26.48
2022-08-03T06:35:26.625Z,26.53
2022-08-03T06:36:31.016Z,26.56
2022-08-03T06:37:35.478Z,26.60
2022-08-03T06:38:39.847Z,26.65
2022-08-03T06:39:44.207Z,26.69
2022-08-03T06:40:48.807Z,26.76
2022-08-03T06:41:52.976Z,26.83
2022-08-03T06:42:57.368Z,26.87
2022-08-03T06:44:03.708Z,26.91
2022-08-03T06:45:06.145Z,26.95
2022-08-03T06:46:10.509Z,27.00
2022-08-03T06:47:14.927Z,27.04
2022-08-03T06:48:19.298Z,27.08
2022-08-03T06:49:23.715Z,27.12
2022-08-03T06:50:28.144Z,27.16
2022-08-03T06:52:03.766Z,27.20
2022-08-03T06:52:38.083Z,27.23
2022-08-03T06:53:41.209Z,27.27
2022-08-03T06:54:45.579Z,27.29
2022-08-03T06:55:54.190Z,27.32
2022-08-03T06:56:54.344Z,27.34
2022-08-03T06:58:00.066Z,27.39
2022-08-03T06:59:03.110Z,27.43
2022-08-03T07:00:12.250Z,27.49
2022-08-03T07:01:11.916Z,27.52
2022-08-03T07:02:19.303Z,27.54
2022-08-03T07:03:20.802Z,27.61
2022-08-03T07:04:25.170Z,27.67
2022-08-03T07:05:29.541Z,27.73
2022-08-03T07:06:33.921Z,27.79
2022-08-03T07:07:38.311Z,27.85
2022-08-03T07:08:42.682Z,27.91
2022-08-03T07:09:56.616Z,27.97
2022-08-03T07:10:51.441Z,28.03
2022-08-03T07:11:55.823Z,28.09
2022-08-03T07:13:00.216Z,28.14
2022-08-03T07:14:04.596Z,28.20
2022-08-03T07:15:08.962Z,28.27
2022-08-03T07:16:13.334Z,28.34
2022-08-03T07:17:17.724Z,28.40
2022-08-03T07:18:29.095Z,28.45
2022-08-03T07:19:26.464Z,28.50
2022-08-03T07:20:32.644Z,28.54
2022-08-03T07:21:35.194Z,28.60
2022-08-03T07:22:39.597Z,28.64
2022-08-03T07:23:43.964Z,28.68
2022-08-03T07:24:48.491Z,28.73
2022-08-03T07:25:52.761Z,28.77
2022-08-03T07:26:57.134Z,28.82
2022-08-03T07:28:01.518Z,28.88
2022-08-03T07:29:14.748Z,28.93
2022-08-03T07:30:10.258Z,28.99
2022-08-03T07:31:14.616Z,29.03
2022-08-03T07:32:19.331Z,29.07
2022-08-03T07:33:23.385Z,29.10
2022-08-03T07:34:27.763Z,29.11
2022-08-03T07:35:32.126Z,29.13
2022-08-03T07:36:36.498Z,29.16
2022-08-03T07:37:40.912Z,29.18
2022-08-03T07:38:45.276Z,29.21
2022-08-03T07:39:49.646Z,29.25
2022-08-03T07:40:54.022Z,29.27
2022-08-03T07:41:58.388Z,29.29
2022-08-03T07:43:02.797Z,29.30
2022-08-03T07:44:07.175Z,29.32
2022-08-03T07:45:16.710Z,29.34
2022-08-03T07:46:15.926Z,29.38
2022-08-03T07:47:22.794Z,29.43
2022-08-03T07:48:24.697Z,29.49
2022-08-03T07:49:29.120Z,29.54
2022-08-03T07:50:33.449Z,29.58
2022-08-03T07:51:37.819Z,29.61
2022-08-03T07:52:42.218Z,29.63
2022-08-03T07:53:47.875Z,29.63
2022-08-03T07:54:50.966Z,29.61
2022-08-03T07:55:55.337Z,29.63
2022-08-03T07:56:59.708Z,29.65
2022-08-03T07:58:04.105Z,29.67
2022-08-03T07:59:08.478Z,29.72
2022-08-03T08:00:12.857Z,29.78
2022-08-03T08:01:17.274Z,29.84
2022-08-03T08:02:21.590Z,29.91
2022-08-03T08:03:25.988Z,29.96
2022-08-03T08:04:30.372Z,30.01
2022-08-03T08:05:34.740Z,30.08
2022-08-03T08:06:39.110Z,30.13
2022-08-03T08:07:43.520Z,30.17
2022-08-03T08:08:47.894Z,30.21
2022-08-03T08:09:52.263Z,30.26
2022-08-03T08:10:58.545Z,30.28
2022-08-03T08:12:01.008Z,30.32
2022-08-03T08:13:05.402Z,30.36
2022-08-03T08:14:09.771Z,30.41
2022-08-03T08:15:14.152Z,30.48
2022-08-03T08:16:18.531Z,30.57
2022-08-03T08:17:22.908Z,30.66
2022-08-03T08:18:27.301Z,30.74
2022-08-03T08:19:31.670Z,30.79
2022-08-03T08:20:38.019Z,30.82
2022-08-03T08:21:53.829Z,30.88
2022-08-03T08:22:44.933Z,30.92
2022-08-03T08:23:56.903Z,30.94
2022-08-03T08:24:53.674Z,31.01
2022-08-03T08:25:58.035Z,31.07
2022-08-03T08:27:02.405Z,31.11
2022-08-03T08:28:30.619Z,31.15
2022-08-03T08:29:11.183Z,31.18
2022-08-03T08:30:19.135Z,31.25
2022-08-03T08:31:19.923Z,31.32
2022-08-03T08:32:24.295Z,31.36
2022-08-03T08:33:42.208Z,31.41
2022-08-03T08:34:33.055Z,31.43
2022-08-03T08:35:37.423Z,31.45
2022-08-03T08:36:41.789Z,31.44
2022-08-03T08:37:51.044Z,31.43
2022-08-03T08:38:50.537Z,31.42
2022-08-03T08:39:54.905Z,31.44
2022-08-03T08:40:59.265Z,31.50
2022-08-03T08:42:03.638Z,31.53
2022-08-03T08:43:08.033Z,31.55
2022-08-03T08:44:12.417Z,31.58
2022-08-03T08:45:16.784Z,31.61
2022-08-03T08:46:23.104Z,31.66
2022-08-03T08:47:26.079Z,31.73
2022-08-03T08:48:29.906Z,31.81
2022-08-03T08:49:34.310Z,31.87
2022-08-03T08:50:38.648Z,31.91
2022-08-03T08:51:54.929Z,31.96
2022-08-03T08:52:47.378Z,31.98
2022-08-03T08:53:51.766Z,32.02
2022-08-03T08:54:56.139Z,32.01
2022-08-03T08:56:01.062Z,32.00
2022-08-03T08:57:16.412Z,31.99
2022-08-03T08:58:09.265Z,31.97
2022-08-03T08:59:13.628Z,31.98
2022-08-03T09:00:18.010Z,31.98
2022-08-03T09:01:22.446Z,32.01
2022-08-03T09:02:26.738Z,32.06
2022-08-03T09:03:31.182Z,32.13
2022-08-03T09:04:35.514Z,32.19
2022-08-03T09:05:55.457Z,32.26
2022-08-03T09:06:58.573Z,32.33
2022-08-03T09:07:48.611Z,32.42
2022-08-03T09:08:53.001Z,32.50
2022-08-03T09:10:11.255Z,32.57
2022-08-03T09:11:01.748Z,32.64
2022-08-03T09:12:35.354Z,32.70
2022-08-03T09:13:10.477Z,32.76
2022-08-03T09:14:35.331Z,32.83
2022-08-03T09:15:19.223Z,32.90
2022-08-03T09:16:23.597Z,32.98
2022-08-03T09:17:27.970Z,33.02
2022-08-03T09:18:33.182Z,33.06
2022-08-03T09:19:36.730Z,33.07
2022-08-03T09:20:41.104Z,33.10
2022-08-03T09:21:45.459Z,33.13
2022-08-03T09:22:49.821Z,33.16
2022-08-03T09:24:02.441Z,33.19
2022-08-03T09:25:22.656Z,33.20
2022-08-03T09:26:02.975Z,33.23
2022-08-03T09:27:07.302Z,33.26
2022-08-03T09:28:11.685Z,33.27
2022-08-03T09:29:16.066Z,33.28
2022-08-03T09:30:34.162Z,33.32
2022-08-03T09:31:24.804Z,33.37
2022-08-03T09:32:29.174Z,33.43
2022-08-03T09:33:34.849Z,33.46
2022-08-03T09:34:37.955Z,33.49
2022-08-03T09:35:58.014Z,33.53
2022-08-03T09:36:46.974Z,33.57
2022-08-03T09:38:12.629Z,33.59
2022-08-03T09:38:55.462Z,33.61
2022-08-03T09:39:59.830Z,33.61
2022-08-03T09:41:04.195Z,33.63
2022-08-03T09:42:08.564Z,33.65
2022-08-03T09:43:12.942Z,33.70
2022-08-03T09:44:24.903Z,33.76
2022-08-03T09:45:21.696Z,33.75
2022-08-03T09:46:26.064Z,33.79
2022-08-03T09:47:30.426Z,33.85
2022-08-03T09:48:34.952Z,33.88
2022-08-03T09:49:41.070Z,33.92
2022-08-03T09:50:58.631Z,33.98
2022-08-03T09:52:31.804Z,33.99
2022-08-03T09:52:52.998Z,34.01
2022-08-03T09:53:59.121Z,34.04
2022-08-03T09:55:01.058Z,34.07
2022-08-03T09:56:35.838Z,34.12
2022-08-03T09:57:09.786Z,34.16
2022-08-03T09:58:14.146Z,34.19
2022-08-03T09:59:18.539Z,34.26
2022-08-03T10:00:22.906Z,34.35
2022-08-03T10:01:27.292Z,34.40
2022-08-03T10:02:31.616Z,34.44
2022-08-03T10:03:35.981Z,34.49
2022-08-03T10:04:40.376Z,34.51
2022-08-03T10:05:44.751Z,34.54
2022-08-03T10:06:49.128Z,34.57
2022-08-03T10:07:53.498Z,34.60
2022-08-03T10:08:57.888Z,34.62
2022-08-03T10:10:31.346Z,34.64
2022-08-03T10:11:06.621Z,34.67
2022-08-03T10:12:10.999Z,34.72
2022-08-03T10:13:15.370Z,34.78
2022-08-03T10:14:19.968Z,34.85
2022-08-03T10:16:22.592Z,34.89
2022-08-03T10:16:28.489Z,34.86
2022-08-03T10:17:35.197Z,34.83
2022-08-03T10:18:37.231Z,34.79
2022-08-03T10:19:41.622Z,34.77
2022-08-03T10:20:45.990Z,34.77
2022-08-03T10:21:50.361Z,34.76
2022-08-03T10:22:54.729Z,34.73
2022-08-03T10:23:59.081Z,34.71
2022-08-03T10:25:03.487Z,34.70
2022-08-03T10:26:07.861Z,34.73
2022-08-03T10:27:12.213Z,34.74
2022-08-03T10:28:16.603Z,34.75
2022-08-03T10:29:21.003Z,34.82
2022-08-03T10:30:26.123Z,34.85
2022-08-03T10:31:29.741Z,34.91
2022-08-03T10:32:34.103Z,34.96
2022-08-03T10:33:50.133Z,35.02
2022-08-03T10:34:44.610Z,35.05
2022-08-03T10:35:47.243Z,35.09
2022-08-03T10:36:51.613Z,35.14
2022-08-03T10:37:59.031Z,35.20
2022-08-03T10:39:00.361Z,35.26
2022-08-03T10:40:04.744Z,35.33
2022-08-03T10:41:09.124Z,35.34
2022-08-03T10:42:14.664Z,35.36
2022-08-03T10:43:17.875Z,35.39
2022-08-03T10:44:22.296Z,35.39
2022-08-03T10:45:26.675Z,35.42
2022-08-03T10:46:31.035Z,35.45
2022-08-03T10:47:35.407Z,35.47
2022-08-03T10:48:39.774Z,35.45
2022-08-03T10:49:44.225Z,35.41
2022-08-03T10:50:48.555Z,35.38
2022-08-03T10:51:54.296Z,35.37
2022-08-03T10:52:57.284Z,35.40
2022-08-03T10:54:02.112Z,35.43
2022-08-03T10:55:07.786Z,35.47
2022-08-03T10:56:10.415Z,35.55
2022-08-03T10:57:14.876Z,35.55
2022-08-03T10:58:30.265Z,35.61
2022-08-03T10:59:28.024Z,35.69
2022-08-03T11:00:27.992Z,35.74
2022-08-03T11:01:58.297Z,35.77
2022-08-03T11:02:36.637Z,35.82
2022-08-03T11:03:41.013Z,35.85
2022-08-03T11:04:45.411Z,35.84
2022-08-03T11:05:49.762Z,35.83
2022-08-03T11:06:54.127Z,35.84
2022-08-03T11:07:58.488Z,35.81
2022-08-03T11:09:02.858Z,35.82
2022-08-03T11:10:10.494Z,35.81
2022-08-03T11:11:11.631Z,35.79
2022-08-03T11:12:15.988Z,35.74
2022-08-03T11:13:20.360Z,35.62
2022-08-03T11:14:24.720Z,35.61
2022-08-03T11:15:29.107Z,35.61
2022-08-03T11:16:33.474Z,35.58
2022-08-03T11:17:46.942Z,35.51
2022-08-03T11:18:42.220Z,35.47
2022-08-03T11:19:56.648Z,35.52
2022-08-03T11:20:50.970Z,35.56
2022-08-03T11:21:55.343Z,35.61
2022-08-03T11:22:59.701Z,35.65
2022-08-03T11:24:06.610Z,35.60
2022-08-03T11:25:08.459Z,35.50
2022-08-03T11:26:12.872Z,35.41
2022-08-03T11:27:17.472Z,35.38
2022-08-03T11:28:21.605Z,35.39
2022-08-03T11:29:25.971Z,35.38
2022-08-03T11:30:30.360Z,35.28
2022-08-03T11:31:51.503Z,35.27
2022-08-03T11:32:39.105Z,35.29
2022-08-03T11:33:43.460Z,35.37
2022-08-03T11:34:47.824Z,35.50
2022-08-03T11:35:52.202Z,35.66
2022-08-03T11:36:56.564Z,35.82
2022-08-03T11:38:02.438Z,35.93
2022-08-03T11:39:05.302Z,36.03
2022-08-03T11:40:09.694Z,36.13
2022-08-03T11:41:14.065Z,36.26
2022-08-03T11:42:18.424Z,36.37
2022-08-03T11:43:22.794Z,36.50
2022-08-03T11:44:27.164Z,36.60
2022-08-03T11:45:31.563Z,36.68
2022-08-03T11:46:35.924Z,36.75
2022-08-03T11:47:50.451Z,36.81
2022-08-03T11:48:44.670Z,36.86
2022-08-03T11:49:49.044Z,36.91
2022-08-03T11:50:53.436Z,36.97
2022-08-03T11:51:57.805Z,37.02
2022-08-03T11:53:02.168Z,37.08
2022-08-03T11:54:06.538Z,37.11
2022-08-03T11:55:10.931Z,37.13
2022-08-03T11:56:15.296Z,37.13
2022-08-03T11:57:19.911Z,37.13
2022-08-03T11:59:00.986Z,37.15
2022-08-03T11:59:28.410Z,37.20
2022-08-03T12:00:32.801Z,37.25
2022-08-03T12:01:37.157Z,37.32
2022-08-03T12:02:41.530Z,37.40
2022-08-03T12:03:46.033Z,37.46
2022-08-03T12:04:50.276Z,37.47
2022-08-03T12:05:54.875Z,37.45
2022-08-03T12:06:59.037Z,37.41
2022-08-03T12:08:06.711Z,37.36
2022-08-03T12:09:07.788Z,37.35
2022-08-03T12:10:12.158Z,37.33
2022-08-03T12:11:16.559Z,37.38
2022-08-03T12:12:20.932Z,37.44
2022-08-03T12:14:10.661Z,37.47
2022-08-03T12:14:49.872Z,37.37
2022-08-03T12:15:34.068Z,37.35
2022-08-03T12:16:38.429Z,37.43
2022-08-03T12:17:42.797Z,37.54
2022-08-03T12:18:47.160Z,37.80
2022-08-03T12:19:51.531Z,38.27
2022-08-03T12:20:55.933Z,38.93
2022-08-03T12:22:00.304Z,39.67
2022-08-03T12:23:04.852Z,40.39
2022-08-03T12:24:09.077Z,41.04
2022-08-03T12:25:13.443Z,41.60
2022-08-03T12:26:17.834Z,42.07
2022-08-03T12:27:22.211Z,42.12
2022-08-03T12:28:28.273Z,42.10
2022-08-03T12:29:30.962Z,42.52
2022-08-03T12:30:35.343Z,43.00
2022-08-03T12:31:39.740Z,43.50
2022-08-03T12:32:44.107Z,43.95
2022-08-03T12:33:48.480Z,44.41
2022-08-03T12:34:52.859Z,44.83
2022-08-03T12:35:57.256Z,45.19
2022-08-03T12:37:01.622Z,45.65
2022-08-03T12:38:05.993Z,46.09
2022-08-03T12:39:10.363Z,46.53
2022-08-03T12:40:19.603Z,47.05
2022-08-03T12:41:19.125Z,47.51
2022-08-03T12:42:23.493Z,47.93
2022-08-03T12:43:27.868Z,48.44
2022-08-03T12:44:32.237Z,48.95
2022-08-03T12:45:36.603Z,49.47
2022-08-03T12:46:46.928Z,49.68
2022-08-03T12:47:45.366Z,49.76
2022-08-03T12:48:49.762Z,49.86
2022-08-03T12:49:54.125Z,49.99
2022-08-03T12:50:58.533Z,50.17
2022-08-03T12:52:07.402Z,50.11
2022-08-03T12:53:07.862Z,50.06
2022-08-03T12:54:11.634Z,50.07
2022-08-03T12:55:16.015Z,49.96
2022-08-03T12:56:20.376Z,50.08
2022-08-03T12:57:24.736Z,50.30
2022-08-03T12:58:29.170Z,50.64
2022-08-03T12:59:40.448Z,50.97
2022-08-03T13:00:37.815Z,51.24
2022-08-03T13:01:55.178Z,51.46
2022-08-03T13:02:46.621Z,51.59
2022-08-03T13:03:52.713Z,51.77
2022-08-03T13:04:55.243Z,51.80
2022-08-03T13:05:59.618Z,51.89
2022-08-03T13:07:03.957Z,52.03
2022-08-03T13:08:08.299Z,52.19
2022-08-03T13:09:12.648Z,52.48
2022-08-03T13:10:17.709Z,52.69
2022-08-03T13:11:21.347Z,52.77
2022-08-03T13:12:25.688Z,52.71
2022-08-03T13:13:30.028Z,51.90
2022-08-03T13:14:34.390Z,51.22
2022-08-03T13:15:48.089Z,51.20
2022-08-03T13:16:43.098Z,51.35
2022-08-03T13:17:47.429Z,51.58
2022-08-03T13:18:51.770Z,51.98
2022-08-03T13:19:56.110Z,52.41
2022-08-03T13:21:00.450Z,52.62
2022-08-03T13:22:05.087Z,51.80
2022-08-03T13:23:12.988Z,51.25
2022-08-03T13:24:13.514Z,51.18
2022-08-03T13:25:17.849Z,51.32
2022-08-03T13:26:22.182Z,51.72
2022-08-03T13:28:03.095Z,52.13
2022-08-03T13:28:30.911Z,52.49
2022-08-03T13:29:35.244Z,52.80
2022-08-03T13:30:39.583Z,53.03
2022-08-03T13:31:50.557Z,52.32
2022-08-03T13:32:48.279Z,51.48
2022-08-03T13:33:52.624Z,51.32
2022-08-03T13:34:56.953Z,51.56
2022-08-03T13:36:01.301Z,51.47
2022-08-03T13:37:09.805Z,50.86
2022-08-03T13:38:10.063Z,50.01
2022-08-03T13:39:14.344Z,49.25
2022-08-03T13:40:18.705Z,48.42
2022-08-03T13:41:31.079Z,47.79
2022-08-03T13:42:27.425Z,48.29
2022-08-03T13:43:31.765Z,49.19
2022-08-03T13:44:36.116Z,50.16
2022-08-03T13:45:40.464Z,51.16
2022-08-03T13:46:44.814Z,51.98
2022-08-03T13:47:49.191Z,52.44
2022-08-03T13:48:53.533Z,52.57
2022-08-03T13:50:01.151Z,52.75
2022-08-03T13:51:11.513Z,52.88
2022-08-03T13:52:06.607Z,52.96
2022-08-03T13:53:10.954Z,53.15
2022-08-03T13:54:15.298Z,53.16
2022-08-03T13:55:19.647Z,53.26
2022-08-03T13:56:23.997Z,53.21
2022-08-03T13:58:06.273Z,53.38
2022-08-03T13:58:32.738Z,53.61
2022-08-03T13:59:37.087Z,53.87
2022-08-03T14:00:41.438Z,54.06
2022-08-03T14:01:54.778Z,54.03
2022-08-03T14:02:50.169Z,54.15
2022-08-03T14:03:54.528Z,54.37